Flight Track Log - Related Links

Times and Time Zones

All times are in EDT time to prevent confusion due to time zone crossing. See the CMP472 flight status page for this flight to view local times or setup timezone preferences in your user account.

Time Position Orientation Groundspeed Altitude Reporting Facility
EDT Latitude Longitude Course Direction KTS MPH feet Rate Location/Type
Thu 01:04:33 PM 9.0730 -79.3780 29° Northeast 186 214 400  Level FlightAware ADS-B
Thu 01:05:03 PM 9.0970 -79.3650 28° Northeast 189 217 1,800 2,400 Climbing FlightAware ADS-B
Thu 01:05:28 PM 9.1170 -79.3540 29° Northeast 186 214 2,600 2,073 Climbing FlightAware ADS-B
Thu 01:05:58 PM 9.1400 -79.3400 31° Northeast 200 230 3,700 1,600 Climbing FlightAware ADS-B
Thu 01:06:28 PM 9.1670 -79.3250 29° Northeast 238 274 4,200 1,091 Climbing FlightAware ADS-B
Thu 01:06:53 PM 9.1940 -79.3100 29° Northeast 263 303 4,700 1,800 Climbing FlightAware ADS-B
Thu 01:07:18 PM 9.2220 -79.2990 21° North 276 318 5,700 2,533 Climbing FlightAware ADS-B
Thu 01:07:38 PM 9.2470 -79.3070 342° North 279 321 6,600 2,600 Climbing FlightAware ADS-B
Thu 01:07:48 PM 9.2570 -79.3150 322° Northwest 280 322 7,000 2,400 Climbing FlightAware ADS-B
Thu 01:08:03 PM 9.2670 -79.3330 299° West 286 329 7,600 2,267 Climbing FlightAware ADS-B
Thu 01:08:33 PM 9.2830 -79.3710 293° West 293 337 8,700 2,182 Climbing FlightAware ADS-B
Thu 01:08:58 PM 9.2980 -79.4040 295° West 301 346 9,600 1,971 Climbing FlightAware ADS-B
Thu 01:09:43 PM 9.3250 -79.4650 294° West 325 374 11,000 1,412 Climbing FlightAware ADS-B
Thu 01:10:23 PM 9.3500 -79.5220 294° West 361 415 11,600 1,553 Climbing FlightAware ADS-B
Thu 01:11:08 PM 9.3810 -79.5930 294° West 370 426 13,200 2,118 Climbing FlightAware ADS-B
Thu 01:11:48 PM 9.4100 -79.6580 294° West 374 430 14,600 2,025 Climbing FlightAware ADS-B
Thu 01:12:28 PM 9.4380 -79.7200 295° West 380 437 15,900 1,835 Climbing FlightAware ADS-B
Thu 01:13:13 PM 9.4720 -79.7980 294° West 394 453 17,200 1,800 Climbing FlightAware ADS-B
Thu 01:13:48 PM 9.4980 -79.8570 294° West 397 457 18,300 1,760 Climbing FlightAware ADS-B
Thu 01:14:28 PM 9.5270 -79.9230 294° West 402 463 19,400 1,467 Climbing FlightAware ADS-B
Thu 01:15:18 PM 9.5660 -80.0110 294° West 413 475 20,500 1,400 Climbing FlightAware ADS-B
Thu 01:15:58 PM 9.5980 -80.0840 294° West 417 480 21,500 1,553 Climbing FlightAware ADS-B
Thu 01:16:43 PM 9.6330 -80.1640 294° West 418 481 22,700 1,412 Climbing FlightAware ADS-B
Thu 01:17:23 PM 9.6640 -80.2340 294° West 423 487 23,500 640 Climbing FlightAware ADS-B
Thu 01:17:58 PM 9.6860 -80.2900 292° West 423 487 23,500 1,129 Level FlightAware ADS-B
Thu 01:18:48 PM 9.7350 -80.3950 295° West 440 506 25,100 1,533 Climbing FlightAware ADS-B
Thu 01:19:28 PM 9.7670 -80.4690 294° West 445 512 25,800 988 Climbing FlightAware ADS-B
Thu 01:20:13 PM 9.8030 -80.5500 294° West 449 517 26,500 960 Climbing FlightAware ADS-B
Thu 01:20:43 PM 9.8300 -80.6130 294° West 453 521 27,000 400 Climbing FlightAware ADS-B
Thu 01:21:28 PM 9.8610 -80.6910 292° West 453 521 27,000  Level FlightAware ADS-B
Thu 01:22:18 PM 9.8950 -80.7750 292° West 453 521 27,000  Level FlightAware ADS-B
Thu 01:22:58 PM 9.9210 -80.8420 292° West 453 521 27,000  Level FlightAware ADS-B
Thu 01:23:38 PM 9.9480 -80.9090 292° West 453 521 27,000  Level FlightAware ADS-B
Thu 01:24:18 PM 9.9750 -80.9760 292° West 453 521 27,000 45 Level FlightAware ADS-B
Thu 01:26:00 PM 10.0839 -81.1419 304° West  Level FlightAware Approximate
Thu 01:27:00 PM 10.1480 -81.2396 304° West  Level FlightAware Approximate
Thu 01:28:00 PM 10.2120 -81.3373 304° West  Level FlightAware Approximate
Thu 01:29:00 PM 10.2760 -81.4350 304° West  Level FlightAware Approximate
Thu 01:30:00 PM 10.3399 -81.5328 304° West  Level FlightAware Approximate
Thu 01:31:00 PM 10.4038 -81.6306 304° West  Level FlightAware Approximate
Thu 01:32:00 PM 10.4677 -81.7284 304° West  Level FlightAware Approximate
Thu 01:33:00 PM 10.5316 -81.8263 304° West  Level FlightAware Approximate
Thu 01:34:00 PM 10.5954 -81.9242 304° West  Level FlightAware Approximate
Thu 01:35:00 PM 10.6592 -82.0222 304° West  Level FlightAware Approximate
Thu 01:36:00 PM 10.7230 -82.1202 304° West  Level FlightAware Approximate
Thu 01:37:00 PM 10.7867 -82.2183 304° West  Level FlightAware Approximate
Thu 01:38:00 PM 10.8504 -82.3164 303° West  Level FlightAware Approximate
Thu 01:39:00 PM 10.9141 -82.4145 303° West  Level FlightAware Approximate
Thu 01:40:00 PM 10.9777 -82.5127 303° West  Level FlightAware Approximate
Thu 01:41:00 PM 11.0414 -82.6109 303° West  Level FlightAware Approximate
Thu 01:42:00 PM 11.1036 -82.7118 301° West  Level FlightAware Approximate
Thu 01:43:00 PM 11.1637 -82.8123 301° West  Level FlightAware Approximate
Thu 01:44:00 PM 11.2237 -82.9129 301° West  Level FlightAware Approximate
Thu 01:45:00 PM 11.2837 -83.0136 301° West  Level FlightAware Approximate
Thu 01:46:00 PM 11.3437 -83.1143 301° West  Level FlightAware Approximate
Thu 01:47:00 PM 11.4036 -83.2150 301° West  Level FlightAware Approximate
Thu 01:48:00 PM 11.4635 -83.3158 301° West  Level FlightAware Approximate
Thu 01:49:00 PM 11.5234 -83.4166 301° West  Level FlightAware Approximate
Thu 01:50:00 PM 11.5832 -83.5174 301° West  Level FlightAware Approximate
Thu 01:51:00 PM 11.6430 -83.6183 301° West  Level FlightAware Approximate
Thu 01:52:00 PM 11.7027 -83.7192 301° West  Level FlightAware Approximate
Thu 01:53:00 PM 11.7625 -83.8202 301° West  Level FlightAware Approximate
Thu 01:54:00 PM 11.8222 -83.9212 301° West  Level FlightAware Approximate
Thu 01:55:00 PM 11.8818 -84.0223 301° West  Level FlightAware Approximate
Thu 01:56:00 PM 11.9414 -84.1234 301° West  Level FlightAware Approximate
Thu 01:57:00 PM 12.0010 -84.2246 301° West  Level FlightAware Approximate
Thu 01:58:00 PM 12.0605 -84.3258 301° West  Level FlightAware Approximate
Thu 01:59:00 PM 12.1201 -84.4270 301° West  Level FlightAware Approximate
Thu 02:00:00 PM 12.1795 -84.5283 301° West  Level FlightAware Approximate
Thu 02:01:00 PM 12.2389 -84.6297 301° West  Level FlightAware Approximate
Thu 02:02:00 PM 12.2984 -84.7310 301° West  Level FlightAware Approximate
Thu 02:03:00 PM 12.3577 -84.8325 301° West  Level FlightAware Approximate
Thu 02:04:00 PM 12.4170 -84.9340 301° West  Level FlightAware Approximate
Thu 02:05:00 PM 12.4768 -85.0352 301° West  Level FlightAware Approximate
Thu 02:06:00 PM 12.5365 -85.1364 301° West  Level FlightAware Approximate
Thu 02:07:00 PM 12.5963 -85.2377 301° West  Level FlightAware Approximate
Thu 02:08:00 PM 12.6559 -85.3391 301° West  Level FlightAware Approximate
Thu 02:09:00 PM 12.7156 -85.4405 301° West  Level FlightAware Approximate
Thu 02:10:00 PM 12.7752 -85.5419 301° West  Level FlightAware Approximate
Thu 02:11:00 PM 12.8347 -85.6434 301° West  Level FlightAware Approximate
Thu 02:12:00 PM 12.8942 -85.7450 301° West  Level FlightAware Approximate
Thu 02:13:00 PM 12.9539 -85.8464 301° West  Level FlightAware Approximate
Thu 02:14:00 PM 13.0138 -85.9478 301° West  Level FlightAware Approximate
Thu 02:15:00 PM 13.0736 -86.0493 301° West  Level FlightAware Approximate
Thu 02:16:00 PM 13.1334 -86.1507 301° West  Level FlightAware Approximate
Thu 02:17:00 PM 13.1931 -86.2523 301° West  Level FlightAware Approximate
Thu 02:18:00 PM 13.2528 -86.3539 301° West  Level FlightAware Approximate
Thu 02:19:00 PM 13.3125 -86.4555 301° West  Level FlightAware Approximate
Thu 02:20:00 PM 13.3721 -86.5572 301° West  Level FlightAware Approximate
Thu 02:21:00 PM 13.4315 -86.6590 301° West  Level FlightAware Approximate
Thu 02:22:00 PM 13.4905 -86.7611 301° West  Level FlightAware Approximate
Thu 02:23:00 PM 13.5495 -86.8632 301° West  Level FlightAware Approximate
Thu 02:24:00 PM 13.6085 -86.9654 301° West  Level FlightAware Approximate
Thu 02:25:00 PM 13.6674 -87.0677 301° West  Level FlightAware Approximate
Thu 02:26:00 PM 13.7262 -87.1700 301° West  Level FlightAware Approximate
Thu 02:27:00 PM 13.7851 -87.2723 301° West  Level FlightAware Approximate
Thu 02:28:00 PM 13.8438 -87.3747 301° West  Level FlightAware Approximate
Thu 02:29:00 PM 13.9026 -87.4772 301° West  Level FlightAware Approximate
Thu 02:30:00 PM 13.9613 -87.5797 301° West  Level FlightAware Approximate
Thu 02:31:00 PM 14.0199 -87.6822 301° West  Level FlightAware Approximate
Thu 02:32:00 PM 14.0785 -87.7848 301° West  Level FlightAware Approximate
Thu 02:33:00 PM 14.1371 -87.8875 300° West  Level FlightAware Approximate
Thu 02:34:00 PM 14.1956 -87.9902 300° West  Level FlightAware Approximate
Thu 02:35:00 PM 14.2541 -88.0930 300° West  Level FlightAware Approximate
Thu 02:36:00 PM 14.3125 -88.1958 300° West  Level FlightAware Approximate
Thu 02:37:00 PM 14.3709 -88.2987 300° West  Level FlightAware Approximate
Thu 02:38:00 PM 14.4289 -88.4018 300° West  Level FlightAware Approximate
Thu 02:39:00 PM 14.4865 -88.5052 300° West  Level FlightAware Approximate
Thu 02:40:00 PM 14.5441 -88.6086 300° West  Level FlightAware Approximate
Thu 02:41:00 PM 14.6017 -88.7121 300° West  Level FlightAware Approximate
Thu 02:42:00 PM 14.6592 -88.8156 300° West  Level FlightAware Approximate
Thu 02:43:00 PM 14.7166 -88.9192 300° West  Level FlightAware Approximate
Thu 02:44:00 PM 14.7740 -89.0229 300° West  Level FlightAware Approximate
Thu 02:45:00 PM 14.8315 -89.1265 300° West  Level FlightAware Approximate
Thu 02:46:00 PM 14.8893 -89.2299 300° West  Level FlightAware Approximate
Thu 02:47:00 PM 14.9471 -89.3334 300° West  Level FlightAware Approximate
Thu 02:48:00 PM 15.0049 -89.4370 300° West  Level FlightAware Approximate
Thu 02:49:00 PM 15.0626 -89.5406 300° West  Level FlightAware Approximate
Thu 02:50:00 PM 15.1203 -89.6442 300° West  Level FlightAware Approximate
Thu 02:51:00 PM 15.1779 -89.7480 300° West  Level FlightAware Approximate
Thu 02:52:00 PM 15.2354 -89.8518 300° West  Level FlightAware Approximate
Thu 02:53:00 PM 15.2930 -89.9556 300° West  Level FlightAware Approximate
Thu 02:54:00 PM 15.3504 -90.0595 300° West  Level FlightAware Approximate
Thu 02:55:00 PM 15.4079 -90.1634 300° West  Level FlightAware Approximate
Thu 02:56:00 PM 15.4652 -90.2674 300° West  Level FlightAware Approximate
Thu 02:57:00 PM 15.5225 -90.3715 300° West  Level FlightAware Approximate
Thu 02:58:00 PM 15.5798 -90.4756 300° West  Level FlightAware Approximate
Thu 02:59:00 PM 15.6371 -90.5798 300° West  Level FlightAware Approximate
Thu 03:00:00 PM 15.6942 -90.6840 300° West  Level FlightAware Approximate
Thu 03:01:00 PM 15.7514 -90.7883 300° West  Level FlightAware Approximate
Thu 03:02:00 PM 15.8084 -90.8927 300° West  Level FlightAware Approximate
Thu 03:03:00 PM 15.8655 -90.9971 300° West  Level FlightAware Approximate
Thu 03:04:00 PM 15.9225 -91.1016 300° West  Level FlightAware Approximate
Thu 03:05:00 PM 15.9794 -91.2061 300° West  Level FlightAware Approximate
Thu 03:06:00 PM 16.0363 -91.3107 300° West  Level FlightAware Approximate
Thu 03:07:00 PM 16.1008 -91.4098 310° West  Level FlightAware Approximate
Thu 03:08:00 PM 16.1743 -91.5026 310° West  Level FlightAware Approximate
Thu 03:09:00 PM 16.2478 -91.5954 309° West  Level FlightAware Approximate
Thu 03:10:00 PM 16.3212 -91.6883 309° West  Level FlightAware Approximate
Thu 03:11:00 PM 16.3945 -91.7813 309° West  Level FlightAware Approximate
Thu 03:12:00 PM 16.4678 -91.8744 309° West  Level FlightAware Approximate
Thu 03:13:00 PM 16.5411 -91.9675 309° West  Level FlightAware Approximate
Thu 03:14:00 PM 16.6144 -92.0607 309° West  Level FlightAware Approximate
Thu 03:15:00 PM 16.6877 -92.1539 309° West  Level FlightAware Approximate
Thu 03:16:00 PM 16.7609 -92.2471 309° West  Level FlightAware Approximate
Thu 03:17:00 PM 16.8341 -92.3405 309° West  Level FlightAware Approximate
Thu 03:18:00 PM 16.9072 -92.4339 309° West  Level FlightAware Approximate
Thu 03:19:00 PM 16.9803 -92.5274 309° West  Level FlightAware Approximate
Thu 03:20:00 PM 17.0534 -92.6210 309° West  Level FlightAware Approximate
Thu 03:21:00 PM 17.1265 -92.7145 309° West  Level FlightAware Approximate
Thu 03:22:00 PM 17.1997 -92.8081 309° West  Level FlightAware Approximate
Thu 03:23:00 PM 17.2727 -92.9017 309° West  Level FlightAware Approximate
Thu 03:24:00 PM 17.3458 -92.9955 309° West  Level FlightAware Approximate
Thu 03:25:00 PM 17.4188 -93.0893 309° West  Level FlightAware Approximate
Thu 03:26:00 PM 17.4917 -93.1832 309° West  Level FlightAware Approximate
Thu 03:27:00 PM 17.5646 -93.2772 309° West  Level FlightAware Approximate
Thu 03:28:00 PM 17.6375 -93.3712 309° West  Level FlightAware Approximate
Thu 03:29:00 PM 17.7103 -93.4653 309° West  Level FlightAware Approximate
Thu 03:30:00 PM 17.7831 -93.5595 309° West  Level FlightAware Approximate
Thu 03:31:00 PM 17.8558 -93.6538 309° West  Level FlightAware Approximate
Thu 03:32:00 PM 17.9284 -93.7481 309° West  Level FlightAware Approximate
Thu 03:33:00 PM 18.0011 -93.8425 309° West  Level FlightAware Approximate
Thu 03:34:00 PM 18.0737 -93.9370 309° West  Level FlightAware Approximate
Thu 03:35:00 PM 18.1462 -94.0316 309° West  Level FlightAware Approximate
Thu 03:36:00 PM 18.2187 -94.1263 309° West  Level FlightAware Approximate
Thu 03:37:00 PM 18.2911 -94.2210 309° West  Level FlightAware Approximate
Thu 03:38:00 PM 18.3636 -94.3158 309° West  Level FlightAware Approximate
Thu 03:39:00 PM 18.4359 -94.4107 309° West  Level FlightAware Approximate
Thu 03:40:00 PM 18.5082 -94.5057 309° West  Level FlightAware Approximate
Thu 03:41:00 PM 18.5805 -94.6007 309° West  Level FlightAware Approximate
Thu 03:42:00 PM 18.6527 -94.6958 309° West  Level FlightAware Approximate
Thu 03:43:00 PM 18.7248 -94.7911 309° West  Level FlightAware Approximate
Thu 03:44:00 PM 18.7969 -94.8864 309° West  Level FlightAware Approximate
Thu 03:45:00 PM 18.8690 -94.9817 309° West  Level FlightAware Approximate
Thu 03:46:00 PM 18.9410 -95.0772 309° West  Level FlightAware Approximate
Thu 03:47:00 PM 19.0130 -95.1727 309° West  Level FlightAware Approximate
Thu 03:48:00 PM 19.0851 -95.2682 309° West  Level FlightAware Approximate
Thu 03:49:00 PM 19.1570 -95.3639 309° West  Level FlightAware Approximate
Thu 03:50:00 PM 19.2290 -95.4596 309° West  Level FlightAware Approximate
Thu 03:51:00 PM 19.3009 -95.5554 308° West  Level FlightAware Approximate
Thu 03:52:00 PM 19.3727 -95.6512 308° West  Level FlightAware Approximate
Thu 03:53:00 PM 19.4445 -95.7472 308° West  Level FlightAware Approximate
Thu 03:54:00 PM 19.5162 -95.8432 308° West  Level FlightAware Approximate
Thu 03:55:00 PM 19.5879 -95.9393 308° West  Level FlightAware Approximate
Thu 03:56:00 PM 19.6595 -96.0356 308° West  Level FlightAware Approximate
Thu 03:57:00 PM 19.7311 -96.1319 308° West  Level FlightAware Approximate
Thu 03:58:00 PM 19.8026 -96.2282 308° West  Level FlightAware Approximate
Thu 03:59:00 PM 19.8741 -96.3247 308° West  Level FlightAware Approximate
Thu 04:00:00 PM 19.9455 -96.4213 308° West  Level FlightAware Approximate
Thu 04:01:00 PM 20.0168 -96.5179 308° West  Level FlightAware Approximate
Thu 04:02:00 PM 20.0882 -96.6146 308° West  Level FlightAware Approximate
Thu 04:03:00 PM 20.1594 -96.7114 308° West  Level FlightAware Approximate
Thu 04:04:00 PM 20.2335 -96.8057 312° West  Level FlightAware Approximate
Thu 04:05:00 PM 20.3115 -96.8965 313° West  Level FlightAware Approximate
Thu 04:06:00 PM 20.3903 -96.9866 313° West  Level FlightAware Approximate
Thu 04:07:00 PM 20.4690 -97.0769 313° West  Level FlightAware Approximate
Thu 04:08:00 PM 20.5477 -97.1672 313° West  Level FlightAware Approximate
Thu 04:09:00 PM 20.6263 -97.2575 313° West  Level FlightAware Approximate
Thu 04:10:00 PM 20.7049 -97.3480 313° West  Level FlightAware Approximate
Thu 04:11:00 PM 20.7834 -97.4386 313° West  Level FlightAware Approximate
Thu 04:12:00 PM 20.8619 -97.5293 313° West  Level FlightAware Approximate
Thu 04:13:00 PM 20.9403 -97.6200 313° West  Level FlightAware Approximate
Thu 04:14:00 PM 21.0187 -97.7109 313° West  Level FlightAware Approximate
Thu 04:15:00 PM 21.0971 -97.8019 313° West  Level FlightAware Approximate
Thu 04:16:00 PM 21.1754 -97.8929 313° West  Level FlightAware Approximate
Thu 04:17:00 PM 21.2536 -97.9841 313° West  Level FlightAware Approximate
Thu 04:18:00 PM 21.3318 -98.0753 313° West  Level FlightAware Approximate
Thu 04:19:00 PM 21.4099 -98.1667 313° West  Level FlightAware Approximate
Thu 04:20:00 PM 21.4880 -98.2581 313° West  Level FlightAware Approximate
Thu 04:21:00 PM 21.5661 -98.3497 313° West  Level FlightAware Approximate
Thu 04:22:00 PM 21.6441 -98.4413 312° West  Level FlightAware Approximate
Thu 04:23:00 PM 21.7220 -98.5330 312° West  Level FlightAware Approximate
Thu 04:24:00 PM 21.7999 -98.6249 312° West  Level FlightAware Approximate
Thu 04:25:00 PM 21.8777 -98.7168 312° West  Level FlightAware Approximate
Thu 04:26:00 PM 21.9555 -98.8089 312° West  Level FlightAware Approximate
Thu 04:27:00 PM 22.0333 -98.9010 312° West  Level FlightAware Approximate
Thu 04:28:00 PM 22.1110 -98.9932 312° West  Level FlightAware Approximate
Thu 04:29:00 PM 22.1891 -99.0851 313° West  Level FlightAware Approximate
Thu 04:30:00 PM 22.2673 -99.1769 313° West  Level FlightAware Approximate
Thu 04:31:00 PM 22.3454 -99.2689 313° West  Level FlightAware Approximate
Thu 04:32:00 PM 22.4228 -99.3617 311° West  Level FlightAware Approximate
Thu 04:33:00 PM 22.4984 -99.4561 311° West  Level FlightAware Approximate
Thu 04:34:00 PM 22.5741 -99.5507 311° West  Level FlightAware Approximate
Thu 04:35:00 PM 22.6496 -99.6453 311° West  Level FlightAware Approximate
Thu 04:36:00 PM 22.7273 -99.7379 313° West  Level FlightAware Approximate
Thu 04:37:00 PM 22.8056 -99.8300 313° West  Level FlightAware Approximate
Thu 04:38:00 PM 22.8838 -99.9223 313° West  Level FlightAware Approximate
Thu 04:39:00 PM 22.9620 -100.0146 313° West  Level FlightAware Approximate
Thu 04:40:00 PM 23.0401 -100.1070 313° West  Level FlightAware Approximate
Thu 04:41:00 PM 23.1181 -100.1996 313° West  Level FlightAware Approximate
Thu 04:42:00 PM 23.1961 -100.2923 312° West  Level FlightAware Approximate
Thu 04:43:00 PM 23.2722 -100.3868 311° West  Level FlightAware Approximate
Thu 04:44:00 PM 23.3475 -100.4822 311° West  Level FlightAware Approximate
Thu 04:45:00 PM 23.4228 -100.5776 311° West  Level FlightAware Approximate
Thu 04:46:00 PM 23.5006 -100.6705 313° West  Level FlightAware Approximate
Thu 04:47:00 PM 23.5788 -100.7633 313° West  Level FlightAware Approximate
Thu 04:48:00 PM 23.6569 -100.8562 313° West  Level FlightAware Approximate
Thu 04:49:00 PM 23.7350 -100.9492 313° West  Level FlightAware Approximate
Thu 04:50:00 PM 23.8130 -101.0423 312° West  Level FlightAware Approximate
Thu 04:51:00 PM 23.8909 -101.1355 312° West  Level FlightAware Approximate
Thu 04:52:00 PM 23.9688 -101.2288 312° West  Level FlightAware Approximate
Thu 04:53:00 PM 24.0466 -101.3222 312° West  Level FlightAware Approximate
Thu 04:54:00 PM 24.1244 -101.4158 312° West  Level FlightAware Approximate
Thu 04:55:00 PM 24.1978 -101.5133 306° West  Level FlightAware Approximate
Thu 04:56:00 PM 24.2659 -101.6156 306° West  Level FlightAware Approximate
Thu 04:57:00 PM 24.3339 -101.7180 306° West  Level FlightAware Approximate
Thu 04:58:00 PM 24.4019 -101.8206 306° West  Level FlightAware Approximate
Thu 04:59:00 PM 24.4698 -101.9232 306° West  Level FlightAware Approximate
Thu 05:00:00 PM 24.5376 -102.0260 306° West  Level FlightAware Approximate
Thu 05:01:00 PM 24.6054 -102.1288 306° West  Level FlightAware Approximate
Thu 05:02:00 PM 24.6731 -102.2318 306° West  Level FlightAware Approximate
Thu 05:03:00 PM 24.7407 -102.3349 306° West  Level FlightAware Approximate
Thu 05:04:00 PM 24.8083 -102.4381 306° West  Level FlightAware Approximate
Thu 05:05:00 PM 24.8757 -102.5414 306° West  Level FlightAware Approximate
Thu 05:06:00 PM 24.9432 -102.6448 306° West  Level FlightAware Approximate
Thu 05:07:00 PM 25.0105 -102.7483 306° West  Level FlightAware Approximate
Thu 05:08:00 PM 25.0778 -102.8520 306° West  Level FlightAware Approximate
Thu 05:09:00 PM 25.1450 -102.9557 306° West  Level FlightAware Approximate
Thu 05:10:00 PM 25.2121 -103.0596 306° West  Level FlightAware Approximate
Thu 05:11:00 PM 25.2805 -103.1625 306° West  Level FlightAware Approximate
Thu 05:12:00 PM 25.3489 -103.2654 306° West  Level FlightAware Approximate
Thu 05:13:00 PM 25.4173 -103.3685 306° West  Level FlightAware Approximate
Thu 05:14:00 PM 25.4856 -103.4717 306° West  Level FlightAware Approximate
Thu 05:15:00 PM 25.5538 -103.5750 306° West  Level FlightAware Approximate
Thu 05:16:00 PM 25.6219 -103.6784 306° West  Level FlightAware Approximate
Thu 05:17:00 PM 25.6900 -103.7819 306° West  Level FlightAware Approximate
Thu 05:18:00 PM 25.7580 -103.8856 306° West  Level FlightAware Approximate
Thu 05:19:00 PM 25.8259 -103.9893 306° West  Level FlightAware Approximate
Thu 05:20:00 PM 25.8937 -104.0932 306° West  Level FlightAware Approximate
Thu 05:21:00 PM 25.9615 -104.1972 306° West  Level FlightAware Approximate
Thu 05:22:00 PM 26.0292 -104.3013 306° West  Level FlightAware Approximate
Thu 05:23:00 PM 26.0963 -104.4061 305° West  Level FlightAware Approximate
Thu 05:24:00 PM 26.1630 -104.5111 305° West  Level FlightAware Approximate
Thu 05:25:00 PM 26.2296 -104.6162 305° West  Level FlightAware Approximate
Thu 05:26:00 PM 26.2962 -104.7215 305° West  Level FlightAware Approximate
Thu 05:27:00 PM 26.3626 -104.8269 305° West  Level FlightAware Approximate
Thu 05:27:28 PM 27.3670 -106.3540 305° West 411 473 38,000  Level FlightAware ADS-B
Thu 05:28:00 PM 26.4290 -104.9324 305° West  Level FlightAware Approximate
Thu 05:28:08 PM 27.4080 -106.4220 304° West 411 473 38,000  Level FlightAware ADS-B
Thu 05:28:48 PM 27.4440 -106.4820 304° West 411 473 38,000  Level FlightAware ADS-B
Thu 05:29:38 PM 27.5100 -106.5830 306° West 421 484 38,000  Level FlightAware ADS-B
Thu 05:30:23 PM 27.5530 -106.6550 304° West 421 484 38,000  Level FlightAware ADS-B
Thu 05:31:13 PM 27.5990 -106.7320 304° West 421 484 38,000  Level FlightAware ADS-B
Thu 05:31:53 PM 27.6360 -106.7940 304° West 421 484 38,000  Level FlightAware ADS-B
Thu 05:32:33 PM 27.6730 -106.8560 304° West 421 484 38,000  Level FlightAware ADS-B
Thu 05:33:13 PM 27.7100 -106.9180 304° West 421 484 38,000  Level FlightAware ADS-B
Thu 05:33:53 PM 27.7470 -106.9800 304° West 421 484 38,000  Level FlightAware ADS-B
Thu 05:34:33 PM 27.7840 -107.0420 304° West 421 484 38,000  Level FlightAware ADS-B
Thu 05:35:23 PM 27.8300 -107.1200 304° West 421 484 38,000  Level FlightAware ADS-B
Thu 05:36:03 PM 27.8670 -107.1820 304° West 421 484 38,000  Level FlightAware ADS-B
Thu 05:36:43 PM 27.9040 -107.2440 304° West 421 484 38,000  Level FlightAware ADS-B
Thu 05:37:23 PM 27.9410 -107.3060 304° West 421 484 38,000  Level FlightAware ADS-B
Thu 05:38:03 PM 27.9790 -107.3680 305° West 421 484 38,000  Level FlightAware ADS-B
Thu 05:38:53 PM 28.0250 -107.4460 304° West 421 484 38,000  Level FlightAware ADS-B
Thu 05:39:33 PM 28.0620 -107.5080 304° West 421 484 38,000  Level FlightAware ADS-B
Thu 05:42:00 PM 28.2078 -107.7831 301° West  Level FlightAware Approximate
Thu 05:43:00 PM 28.2671 -107.8956 301° West  Level FlightAware Approximate
Thu 05:44:00 PM 28.3264 -108.0082 301° West  Level FlightAware Approximate
Thu 05:45:00 PM 28.3855 -108.1209 301° West  Level FlightAware Approximate
Thu 05:46:00 PM 28.4446 -108.2338 301° West  Level FlightAware Approximate
Thu 05:47:00 PM 28.5036 -108.3467 301° West  Level FlightAware Approximate
Thu 05:48:00 PM 28.5625 -108.4599 301° West  Level FlightAware Approximate
Thu 05:49:00 PM 28.6258 -108.5712 304° West  Level FlightAware Approximate
Thu 05:50:00 PM 28.6907 -108.6802 304° West  Level FlightAware Approximate
Thu 05:51:00 PM 28.7554 -108.7892 304° West  Level FlightAware Approximate
Thu 05:52:00 PM 28.8201 -108.8985 304° West  Level FlightAware Approximate
Thu 05:53:00 PM 28.8846 -109.0078 304° West  Level FlightAware Approximate
Thu 05:54:00 PM 28.9491 -109.1173 304° West  Level FlightAware Approximate
Thu 05:55:00 PM 29.0135 -109.2269 304° West  Level FlightAware Approximate
Thu 05:56:00 PM 29.0779 -109.3366 304° West  Level FlightAware Approximate
Thu 05:57:00 PM 29.1421 -109.4465 304° West  Level FlightAware Approximate
Thu 05:58:00 PM 29.2062 -109.5566 304° West  Level FlightAware Approximate
Thu 05:59:00 PM 29.2702 -109.6667 304° West  Level FlightAware Approximate
Thu 06:00:00 PM 29.3342 -109.7770 304° West  Level FlightAware Approximate
Thu 06:01:00 PM 29.3981 -109.8875 304° West  Level FlightAware Approximate
Thu 06:02:00 PM 29.4618 -109.9981 304° West  Level FlightAware Approximate
Thu 06:03:00 PM 29.5255 -110.1088 303° West  Level FlightAware Approximate
Thu 06:04:00 PM 29.5891 -110.2196 303° West  Level FlightAware Approximate
Thu 06:05:00 PM 29.6526 -110.3306 303° West  Level FlightAware Approximate
Thu 06:06:00 PM 29.7160 -110.4418 303° West  Level FlightAware Approximate
Thu 06:07:00 PM 29.7793 -110.5531 303° West  Level FlightAware Approximate
Thu 06:08:00 PM 29.8425 -110.6645 303° West  Level FlightAware Approximate
Thu 06:08:13 PM 29.9290 -110.6660 303° West 394 453 38,000  Level FlightAware ADS-B
Thu 06:08:58 PM 29.9740 -110.7450 303° West 393 452 38,000  Level FlightAware ADS-B
Thu 06:09:38 PM 30.0140 -110.8160 303° West 392 451 38,000  Level FlightAware ADS-B
Thu 06:10:23 PM 30.0580 -110.8950 303° West 392 451 38,000  Level FlightAware ADS-B
Thu 06:11:03 PM 30.0960 -110.9630 303° West 392 451 38,000  Level FlightAware ADS-B
Thu 06:11:43 PM 30.1360 -111.0350 303° West 392 451 38,000  Level FlightAware ADS-B
Thu 06:12:28 PM 30.1810 -111.1160 303° West 393 452 38,000  Level FlightAware ADS-B
Thu 06:13:08 PM 30.2190 -111.1830 303° West 393 452 38,000  Level FlightAware ADS-B
Thu 06:13:53 PM 30.2640 -111.2650 302° West 395 455 38,000  Level FlightAware ADS-B
Thu 06:14:33 PM 30.3030 -111.3350 303° West 398 458 38,000  Level FlightAware ADS-B
Thu 06:15:13 PM 30.3440 -111.4080 303° West 400 460 38,000  Level FlightAware ADS-B
Thu 06:15:58 PM 30.3890 -111.4900 302° West 401 461 38,000  Level FlightAware ADS-B
Thu 06:16:38 PM 30.4300 -111.5640 303° West 401 461 38,000  Level FlightAware ADS-B
Thu 06:17:13 PM 30.4600 -111.6190 302° West 399 459 38,000  Level FlightAware ADS-B
Thu 06:18:03 PM 30.5090 -111.7080 303° West 397 457 38,000  Level FlightAware ADS-B
Thu 06:18:43 PM 30.5420 -111.7690 302° West 397 457 38,000  Level FlightAware ADS-B
Thu 06:19:43 PM 30.6110 -111.8940 303° West 397 457 38,000  Level FlightAware ADS-B
Thu 06:20:23 PM 30.6490 -111.9640 302° West 396 456 38,000  Level FlightAware ADS-B
Thu 06:21:03 PM 30.6890 -112.0360 303° West 395 455 38,000  Level FlightAware ADS-B
Thu 06:21:48 PM 30.7330 -112.1170 302° West 395 455 38,000  Level FlightAware ADS-B
Thu 06:22:28 PM 30.7740 -112.1930 302° West 393 452 38,000  Level FlightAware ADS-B
Thu 06:23:23 PM 30.8240 -112.2850 302° West 391 450 38,000  Level FlightAware ADS-B
Thu 06:24:08 PM 30.8670 -112.3650 302° West 385 443 38,000  Level FlightAware ADS-B
Thu 06:24:43 PM 30.8980 -112.4220 302° West 388 447 38,000  Level FlightAware ADS-B
Thu 06:25:28 PM 30.9410 -112.5020 302° West 388 447 38,000  Level FlightAware ADS-B
Thu 06:26:13 PM 30.9870 -112.5880 302° West 385 443 38,000  Level FlightAware ADS-B
Thu 06:26:53 PM 31.0250 -112.6580 302° West 392 451 38,000  Level FlightAware ADS-B
Thu 06:27:38 PM 31.0690 -112.7400 302° West 392 451 38,000  Level FlightAware ADS-B
Thu 06:28:18 PM 31.1070 -112.8110 302° West 392 451 38,000  Level FlightAware ADS-B
Thu 06:28:58 PM 31.1460 -112.8840 302° West 392 451 38,000  Level FlightAware ADS-B
Thu 06:29:43 PM 31.1880 -112.9640 302° West 393 452 38,000  Level FlightAware ADS-B
Thu 06:30:23 PM 31.2280 -113.0380 302° West 387 445 38,000  Level FlightAware ADS-B
Thu 06:31:08 PM 31.2700 -113.1170 302° West 385 443 38,000  Level FlightAware ADS-B
Thu 06:32:03 PM 31.3210 -113.2140 302° West 377 434 38,000  Level FlightAware ADS-B
Thu 06:32:43 PM 31.3580 -113.2840 302° West 376 433 38,000  Level FlightAware ADS-B
Thu 06:33:23 PM 31.3860 -113.3400 300° West 376 433 38,000  Level FlightAware ADS-B
Thu 06:34:13 PM 31.4450 -113.4390 305° West 376 433 38,000  Level FlightAware ADS-B
Thu 06:34:48 PM 31.4740 -113.4910 303° West 376 433 38,000  Level FlightAware ADS-B
Thu 06:35:38 PM 31.5140 -113.5640 303° West 376 433 38,000  Level FlightAware ADS-B
Thu 06:36:18 PM 31.5460 -113.6220 303° West 376 433 38,000  Level FlightAware ADS-B
Thu 06:36:58 PM 31.5790 -113.6800 304° West 376 433 38,000  Level FlightAware ADS-B
Thu 06:37:38 PM 31.6110 -113.7390 303° West 376 433 38,000  Level FlightAware ADS-B
Thu 06:38:18 PM 31.6430 -113.7970 303° West 376 433 38,000  Level FlightAware ADS-B
Thu 06:39:08 PM 31.6830 -113.8700 303° West 376 433 38,000  Level FlightAware ADS-B
Thu 06:39:48 PM 31.7150 -113.9280 303° West 376 433 38,000  Level FlightAware ADS-B
Thu 06:40:28 PM 31.7480 -113.9860 304° West 376 433 38,000  Level FlightAware ADS-B
Thu 06:40:54 PM 31.8250 -114.1267 302° West 387 445 38,000  Level Los Angeles Center
Thu 06:41:08 PM 31.7800 -114.0450 303° West 376 433 38,000  Level FlightAware ADS-B
Thu 06:41:48 PM 31.8120 -114.1030 303° West 376 433 38,000  Level FlightAware ADS-B
Thu 06:41:56 PM 31.8844 -114.2333 303° West 388 447 38,000  Level Los Angeles Center
Thu 06:42:38 PM 31.8520 -114.1760 303° West 376 433 38,000  Level FlightAware ADS-B
Thu 06:42:58 PM 31.9436 -114.3408 303° West 390 449 38,000  Level Los Angeles Center
Thu 06:43:18 PM 31.8850 -114.2340 304° West 376 433 38,000  Level FlightAware ADS-B
Thu 06:43:58 PM 31.9170 -114.2930 303° West 376 433 38,000 -143 Level FlightAware ADS-B
Thu 06:44:00 PM 32.0136 -114.4706 302° West 390 449 37,900 -92 Descending Los Angeles Center
Thu 06:45:03 PM 32.0719 -114.5781 303° West 389 448 37,900  Level Los Angeles Center
Thu 06:46:00 PM 32.0403 -114.5287 302° West  Level FlightAware Approximate
Thu 06:46:05 PM 32.1306 -114.6836 303° West 386 444 37,900  Level Los Angeles Center
Thu 06:47:07 PM 32.1872 -114.7903 302° West 385 443 37,900  Level Los Angeles Center
Thu 06:48:09 PM 32.2447 -114.8967 303° West 384 442 37,900 48 Level Los Angeles Center
Thu 06:49:11 PM 32.3025 -115.0031 303° West 385 443 38,000  Climbing Los Angeles Center
Thu 06:50:13 PM 32.3722 -115.1333 302° West 389 448 37,900  Descending Los Angeles Center
Thu 06:51:15 PM 32.4303 -115.2411 303° West 389 448 38,000 48 Climbing Los Angeles Center
Thu 06:52:17 PM 32.4861 -115.3442 303° West 387 445 38,000  Level Los Angeles Center
Thu 06:57:33 PM 32.7970 -115.9270 303° West 386 444 38,000  Level FlightAware ADS-B
Thu 06:58:08 PM 32.8250 -115.9830 301° West 386 444 38,000 -1,895 Level FlightAware ADS-B
Thu 06:59:08 PM 32.8820 -116.0880 303° West 368 423 35,000 -2,971 Descending FlightAware ADS-B
Thu 06:59:53 PM 32.9240 -116.1690 302° West 374 430 32,800 -2,682 Descending FlightAware ADS-B
Thu 07:00:33 PM 32.9590 -116.2370 302° West 372 428 31,200 -2,188 Descending FlightAware ADS-B
Thu 07:01:18 PM 32.9970 -116.3100 302° West 364 419 29,700 -2,188 Descending FlightAware ADS-B
Thu 07:01:58 PM 33.0350 -116.3820 302° West 354 407 28,100 -2,175 Descending FlightAware ADS-B
Thu 07:02:38 PM 33.0690 -116.4470 302° West 348 400 26,800 -2,047 Descending FlightAware ADS-B
Thu 07:03:23 PM 33.1070 -116.5220 301° West 342 394 25,200 -1,976 Descending FlightAware ADS-B
Thu 07:04:03 PM 33.1370 -116.5860 299° West 338 389 24,000 -900 Descending FlightAware ADS-B
Thu 07:04:43 PM 33.1490 -116.6580 281° West 344 396 24,000 -282 Level FlightAware ADS-B
Thu 07:05:28 PM 33.1600 -116.7400 279° West 345 397 23,600 -1,694 Descending FlightAware ADS-B
Thu 07:06:08 PM 33.1690 -116.8200 278° West 354 407 21,600 -2,850 Descending FlightAware ADS-B
Thu 07:06:48 PM 33.1790 -116.8990 279° West 357 411 19,800 -2,325 Descending FlightAware ADS-B
Thu 07:07:28 PM 33.1870 -116.9650 278° West 355 409 18,500 -2,100 Descending FlightAware ADS-B
Thu 07:08:08 PM 33.1970 -117.0480 278° West 346 398 17,000 -2,133 Descending FlightAware ADS-B
Thu 07:08:58 PM 33.2080 -117.1450 278° West 335 386 15,300 -2,267 Descending FlightAware ADS-B
Thu 07:09:38 PM 33.2170 -117.2180 278° West 335 386 13,600 -2,175 Descending FlightAware ADS-B
Thu 07:10:18 PM 33.2260 -117.2900 279° West 326 375 12,400 -1,059 Descending FlightAware ADS-B
Thu 07:11:03 PM 33.2350 -117.3680 278° West 311 358 12,100 -212 Descending FlightAware ADS-B
Thu 07:11:43 PM 33.2410 -117.4340 276° West 309 356 12,100  Level FlightAware ADS-B
Thu 07:12:28 PM 33.2460 -117.5120 274° West 302 348 12,100 -353 Level FlightAware ADS-B
Thu 07:13:08 PM 33.2620 -117.5710 288° West 284 327 11,600 -635 Descending FlightAware ADS-B
Thu 07:13:53 PM 33.3120 -117.6140 324° Northwest 285 328 11,200 -988 Descending FlightAware ADS-B
Thu 07:14:33 PM 33.3540 -117.6520 323° Northwest 282 325 10,200 -825 Descending FlightAware ADS-B
Thu 07:15:13 PM 33.3950 -117.6900 322° Northwest 279 321 10,100 -71 Descending FlightAware ADS-B
Thu 07:15:58 PM 33.4390 -117.7320 321° Northwest 278 320 10,100 -257 Level FlightAware ADS-B
Thu 07:16:23 PM 33.4660 -117.7570 322° Northwest 280 322 9,800 -1,050 Descending FlightAware ADS-B
Thu 07:16:38 PM 33.4800 -117.7700 322° Northwest 282 325 9,400 -1,467 Descending FlightAware ADS-B
Thu 07:17:08 PM 33.5100 -117.7980 322° Northwest 279 321 8,700 -1,418 Descending FlightAware ADS-B
Thu 07:17:33 PM 33.5370 -117.8230 322° Northwest 278 320 8,100 -655 Descending FlightAware ADS-B
Thu 07:18:03 PM 33.5670 -117.8510 322° Northwest 274 315 8,100 -100 Level FlightAware ADS-B
Thu 07:18:33 PM 33.5970 -117.8800 321° Northwest 274 315 8,000 -873 Descending FlightAware ADS-B
Thu 07:18:58 PM 33.6220 -117.9030 323° Northwest 280 322 7,300 -982 Descending FlightAware ADS-B
Thu 07:19:28 PM 33.6530 -117.9320 322° Northwest 276 318 7,100 -218 Descending FlightAware ADS-B
Thu 07:19:53 PM 33.6780 -117.9560 321° Northwest 274 315 7,100  Level FlightAware ADS-B
Thu 07:20:23 PM 33.7080 -117.9840 322° Northwest 272 313 7,100  Level FlightAware ADS-B
Thu 07:20:53 PM 33.7380 -118.0120 322° Northwest 274 315 7,100  Level FlightAware ADS-B
Thu 07:21:18 PM 33.7630 -118.0360 321° Northwest 274 315 7,100  Level FlightAware ADS-B
Thu 07:21:48 PM 33.7970 -118.0560 334° Northwest 277 319 7,100  Level FlightAware ADS-B
Thu 07:22:13 PM 33.8270 -118.0660 345° North 275 316 7,100 -655 Level FlightAware ADS-B
Thu 07:22:43 PM 33.8630 -118.0780 345° North 274 315 6,500 -1,200 Descending FlightAware ADS-B
Thu 07:23:13 PM 33.9000 -118.0900 345° North 260 299 5,900 -982 Descending FlightAware ADS-B
Thu 07:23:38 PM 33.9290 -118.1000 344° North 240 276 5,600 -900 Descending FlightAware ADS-B
Thu 07:23:53 PM 33.9410 -118.1080 331° Northwest 227 261 5,300 -1,200 Descending FlightAware ADS-B
Thu 07:24:08 PM 33.9510 -118.1250 305° West 218 251 5,000 -1,500 Descending FlightAware ADS-B
Thu 07:24:33 PM 33.9590 -118.1510 290° West 221 254 4,300 -1,091 Descending FlightAware ADS-B
Thu 07:25:03 PM 33.9580 -118.1850 268° West 222 255 4,000 -1,000 Descending FlightAware ADS-B
Thu 07:25:33 PM 33.9540 -118.2210 262° West 217 250 3,300 -1,680 Descending FlightAware ADS-B
Thu 07:25:53 PM 33.9510 -118.2430 261° West 216 249 2,600 -1,569 Descending FlightAware ADS-B
Thu 07:26:38 PM 33.9460 -118.2960 264° West 176 203 1,600 -857 Descending FlightAware ADS-B
Thu 07:27:03 PM 33.9440 -118.3190 264° West 176 203 1,600 -808 Level FlightAware ADS-B
Thu 07:27:30 PM 33.9422 -118.3386 264° West 184 212 900 -944 Descending Los Angeles Center
Thu 07:28:32 PM 33.9436 -118.3850 272° West 167 192 200 -677 Descending Los Angeles Center
Thu 07:30:00 PM 33.9333 -118.4000 296° West  Level FlightAware Approximate
Thu 07:37:00 PM 33.9425 -118.4081 296° West  Level Estimated

Login

Don't have an account? Register now (free) for customized features, flight alerts, and more!